Time,TemperatureF,DewpointF,PressureIn,WindDirection,WindDirectionDegrees,WindSpeedMPH,WindSpeedGustMPH,Humidity,HourlyPrecipIn,Conditions,Clouds,dailyrainin,SoftwareType,DateUTC
2013-03-20 00:02:00,32.0,25.0,30.23,WSW,248,0.0,0.0,75,0.00,,,0.00,,2013-03-20 05:02:00,
2013-03-20 00:12:00,32.0,25.0,30.22,WSW,248,0.0,0.0,75,0.00,,,0.00,,2013-03-20 05:12:00,
2013-03-20 00:22:00,32.0,25.0,30.22,WSW,248,0.0,0.0,75,0.00,,,0.00,,2013-03-20 05:22:00,
2013-03-20 00:32:00,32.0,24.0,30.22,WSW,248,0.0,0.0,73,0.00,,,0.00,,2013-03-20 05:32:00,
2013-03-20 00:42:00,32.0,24.0,30.22,WSW,248,0.0,0.0,73,0.00,,,0.00,,2013-03-20 05:42:00,
2013-03-20 00:52:00,33.0,25.0,30.22,WSW,248,0.0,0.0,72,0.00,,,0.00,,2013-03-20 05:52:00,
2013-03-20 01:02:00,32.0,24.0,30.22,WSW,248,0.0,0.0,73,0.00,,,0.00,,2013-03-20 06:02:00,
2013-03-20 01:12:00,32.0,24.0,30.22,WSW,248,0.0,0.0,73,0.00,,,0.00,,2013-03-20 06:12:00,
2013-03-20 01:22:00,31.0,24.0,30.22,WSW,248,0.0,0.0,75,0.00,,,0.00,,2013-03-20 06:22:00,
2013-03-20 01:32:00,30.0,23.0,30.22,WSW,248,0.0,0.0,76,0.00,,,0.00,,2013-03-20 06:32:00,
2013-03-20 01:42:00,30.0,23.0,30.22,WSW,248,0.0,0.0,76,0.00,,,0.00,,2013-03-20 06:42:00,
2013-03-20 01:52:00,30.0,24.0,30.22,WSW,248,0.0,0.0,78,0.00,,,0.00,,2013-03-20 06:52:00,
2013-03-20 02:02:00,29.0,24.0,30.22,WSW,248,0.0,0.0,80,0.00,,,0.00,,2013-03-20 07:02:00,
2013-03-20 02:12:00,29.0,24.0,30.22,WSW,248,0.0,0.0,80,0.00,,,0.00,,2013-03-20 07:12:00,
2013-03-20 02:22:00,29.0,24.0,30.22,WSW,248,0.0,0.0,80,0.00,,,0.00,,2013-03-20 07:22:00,
2013-03-20 02:32:00,30.0,25.0,30.21,WSW,248,0.0,0.0,80,0.00,,,0.00,,2013-03-20 07:32:00,
2013-03-20 02:42:00,30.0,25.0,30.21,WSW,248,0.0,0.0,80,0.00,,,0.00,,2013-03-20 07:42:00,
2013-03-20 02:52:00,30.0,24.0,30.21,WSW,248,0.0,0.0,77,0.00,,,0.00,,2013-03-20 07:52:00,
2013-03-20 03:02:00,30.0,24.0,30.21,WSW,248,0.0,0.0,77,0.00,,,0.00,,2013-03-20 08:02:00,
2013-03-20 03:12:00,30.0,24.0,30.21,WSW,248,0.0,0.0,77,0.00,,,0.00,,2013-03-20 08:12:00,
2013-03-20 03:22:00,30.0,25.0,30.20,WSW,248,0.0,0.0,81,0.00,,,0.00,,2013-03-20 08:22:00,
2013-03-20 03:32:00,29.0,24.0,30.20,WSW,248,0.0,0.0,80,0.00,,,0.00,,2013-03-20 08:32:00,
2013-03-20 03:42:00,29.0,24.0,30.20,WSW,248,0.0,0.0,80,0.00,,,0.00,,2013-03-20 08:42:00,
2013-03-20 03:52:00,29.0,24.0,30.19,WSW,248,0.0,0.0,81,0.00,,,0.00,,2013-03-20 08:52:00,
2013-03-20 04:02:00,29.0,24.0,30.19,WSW,248,0.0,0.0,81,0.00,,,0.00,,2013-03-20 09:02:00,
2013-03-20 04:12:00,29.0,24.0,30.19,WSW,248,0.0,0.0,81,0.00,,,0.00,,2013-03-20 09:12:00,
2013-03-20 04:22:00,29.0,25.0,30.18,WSW,248,0.0,0.0,85,0.00,,,0.00,,2013-03-20 09:22:00,
2013-03-20 04:33:00,28.0,24.0,30.18,WSW,248,0.0,0.0,84,0.00,,,0.00,,2013-03-20 09:33:00,
2013-03-20 04:43:00,28.0,24.0,30.18,WSW,248,0.0,0.0,84,0.00,,,0.00,,2013-03-20 09:43:00,
2013-03-20 04:52:00,28.0,24.0,30.18,WSW,248,0.0,0.0,85,0.00,,,0.00,,2013-03-20 09:52:00,
2013-03-20 05:03:00,29.0,24.0,30.17,WSW,248,0.0,0.0,82,0.00,,,0.00,,2013-03-20 10:03:00,
2013-03-20 05:12:00,29.0,24.0,30.17,WSW,248,0.0,0.0,82,0.00,,,0.00,,2013-03-20 10:12:00,
2013-03-20 05:23:00,29.0,24.0,30.18,WSW,248,0.0,0.0,81,0.00,,,0.00,,2013-03-20 10:23:00,
2013-03-20 05:32:00,28.0,23.0,30.18,WSW,248,0.0,0.0,82,0.00,,,0.00,,2013-03-20 10:32:00,
2013-03-20 05:42:00,28.0,23.0,30.18,WSW,248,0.0,0.0,82,0.00,,,0.00,,2013-03-20 10:42:00,
2013-03-20 05:52:00,28.0,23.0,30.19,WSW,248,0.0,0.0,82,0.00,,,0.00,,2013-03-20 10:52:00,
2013-03-20 06:03:00,30.0,25.0,30.19,WNW,291,1.0,5.0,80,0.00,,,0.00,,2013-03-20 11:03:00,
2013-03-20 06:12:00,30.0,25.0,30.19,WNW,291,1.0,5.0,80,0.00,,,0.00,,2013-03-20 11:12:00,
2013-03-20 06:22:00,32.0,25.0,30.20,West,272,0.0,5.0,76,0.00,,,0.00,,2013-03-20 11:22:00,
2013-03-20 06:32:00,32.0,26.0,30.20,WNW,297,0.0,4.0,78,0.00,,,0.00,,2013-03-20 11:32:00,
2013-03-20 06:42:00,32.0,26.0,30.20,WNW,297,0.0,4.0,78,0.00,,,0.00,,2013-03-20 11:42:00,
2013-03-20 06:52:00,32.0,26.0,30.21,NW,323,0.0,7.0,78,0.00,,,0.00,,2013-03-20 11:52:00,
2013-03-20 07:02:00,31.0,26.0,30.21,NW,306,1.0,4.0,80,0.00,,,0.00,,2013-03-20 12:02:00,
2013-03-20 07:12:00,31.0,26.0,30.21,NW,306,1.0,4.0,80,0.00,,,0.00,,2013-03-20 12:12:00,
2013-03-20 07:22:00,32.0,27.0,30.21,NW,314,3.0,10.0,80,0.00,,,0.00,,2013-03-20 12:22:00,
2013-03-20 07:32:00,32.0,27.0,30.22,NW,314,0.0,7.0,80,0.00,,,0.00,,2013-03-20 12:32:00,
2013-03-20 07:42:00,32.0,27.0,30.22,NW,314,0.0,7.0,80,0.00,,,0.00,,2013-03-20 12:42:00,
2013-03-20 07:52:00,32.0,26.0,30.22,West,279,3.0,9.0,78,0.00,,,0.00,,2013-03-20 12:52:00,
2013-03-20 08:03:00,32.0,26.0,30.22,NW,322,0.0,8.0,77,0.00,,,0.00,,2013-03-20 13:03:00,
2013-03-20 08:12:00,32.0,26.0,30.22,NW,322,0.0,8.0,77,0.00,,,0.00,,2013-03-20 13:12:00,
2013-03-20 08:22:00,32.0,25.0,30.22,NNW,331,4.0,6.0,76,0.00,,,0.00,,2013-03-20 13:22:00,
2013-03-20 08:32:00,33.0,24.0,30.22,NW,311,4.0,9.0,70,0.00,,,0.00,,2013-03-20 13:32:00,
2013-03-20 08:42:00,33.0,24.0,30.22,NW,311,4.0,9.0,70,0.00,,,0.00,,2013-03-20 13:42:00,
2013-03-20 08:52:00,33.0,24.0,30.23,NNW,336,3.0,8.0,68,0.00,,,0.00,,2013-03-20 13:52:00,
2013-03-20 09:03:00,33.0,23.0,30.23,NW,311,7.0,11.0,66,0.00,,,0.00,,2013-03-20 14:03:00,
2013-03-20 09:12:00,33.0,23.0,30.23,NW,311,7.0,11.0,66,0.00,,,0.00,,2013-03-20 14:12:00,
2013-03-20 09:23:00,33.0,23.0,30.23,NW,308,7.0,13.0,66,0.00,,,0.00,,2013-03-20 14:23:00,
2013-03-20 09:33:00,33.0,23.0,30.23,NW,308,7.0,13.0,66,0.00,,,0.00,,2013-03-20 14:33:00,
2013-03-20 09:42:00,33.0,23.0,30.23,NW,308,7.0,13.0,66,0.00,,,0.00,,2013-03-20 14:42:00,
2013-03-20 09:52:00,32.0,23.0,30.24,NNW,338,10.0,18.0,68,0.00,,,0.00,,2013-03-20 14:52:00,
2013-03-20 10:02:00,32.0,23.0,30.24,WNW,298,12.0,16.0,70,0.00,,,0.00,,2013-03-20 15:02:00,
2013-03-20 10:12:00,32.0,24.0,30.25,NNW,330,8.0,15.0,71,0.00,,,0.00,,2013-03-20 15:12:00,
2013-03-20 10:22:00,32.0,24.0,30.25,NNW,330,8.0,15.0,71,0.00,,,0.00,,2013-03-20 15:22:00,
2013-03-20 10:33:00,32.0,23.0,30.25,NW,307,9.0,15.0,68,0.00,,,0.00,,2013-03-20 15:33:00,
2013-03-20 10:43:00,32.0,23.0,30.25,NW,307,9.0,15.0,68,0.00,,,0.00,,2013-03-20 15:43:00,
2013-03-20 10:52:00,33.0,24.0,30.25,WNW,301,10.0,14.0,68,0.00,,,0.00,,2013-03-20 15:52:00,
2013-03-20 11:03:00,33.0,23.0,30.25,WNW,291,8.0,19.0,67,0.00,,,0.00,,2013-03-20 16:03:00,
2013-03-20 11:12:00,33.0,23.0,30.25,WNW,291,8.0,19.0,67,0.00,,,0.00,,2013-03-20 16:12:00,
2013-03-20 11:23:00,32.0,21.0,30.25,WNW,286,8.0,16.0,63,0.00,,,0.00,,2013-03-20 16:23:00,
2013-03-20 11:33:00,32.0,18.0,30.26,West,273,12.0,20.0,55,0.00,,,0.00,,2013-03-20 16:33:00,
2013-03-20 11:42:00,32.0,18.0,30.26,West,273,12.0,20.0,55,0.00,,,0.00,,2013-03-20 16:42:00,
2013-03-20 11:52:00,33.0,19.0,30.25,NW,317,9.0,16.0,57,0.00,,,0.00,,2013-03-20 16:52:00,
2013-03-20 12:03:00,32.0,18.0,30.25,West,278,9.0,17.0,56,0.00,,,0.00,,2013-03-20 17:03:00,
2013-03-20 12:12:00,32.0,18.0,30.25,West,278,9.0,17.0,56,0.00,,,0.00,,2013-03-20 17:12:00,
2013-03-20 12:22:00,33.0,19.0,30.25,NW,312,7.0,18.0,57,0.00,,,0.00,,2013-03-20 17:22:00,
2013-03-20 12:32:00,33.0,18.0,30.25,WNW,298,10.0,21.0,54,0.00,,,0.00,,2013-03-20 17:32:00,
2013-03-20 12:42:00,33.0,18.0,30.25,WNW,298,10.0,21.0,54,0.00,,,0.00,,2013-03-20 17:42:00,
2013-03-20 12:52:00,33.0,18.0,30.24,WNW,295,10.0,16.0,54,0.00,,,0.00,,2013-03-20 17:52:00,
2013-03-20 13:02:00,33.0,19.0,30.24,WNW,297,10.0,15.0,55,0.00,,,0.00,,2013-03-20 18:02:00,
2013-03-20 13:12:00,33.0,19.0,30.24,WNW,297,10.0,15.0,55,0.00,,,0.00,,2013-03-20 18:12:00,
2013-03-20 13:22:00,33.0,19.0,30.23,NNW,345,7.0,14.0,55,0.00,,,0.00,,2013-03-20 18:22:00,
2013-03-20 13:33:00,33.0,18.0,30.23,NW,311,9.0,13.0,54,0.00,,,0.00,,2013-03-20 18:33:00,
2013-03-20 13:42:00,33.0,18.0,30.23,NW,311,9.0,13.0,54,0.00,,,0.00,,2013-03-20 18:42:00,
2013-03-20 13:52:00,33.0,19.0,30.22,NW,326,10.0,15.0,57,0.00,,,0.00,,2013-03-20 18:52:00,
2013-03-20 14:02:00,33.0,20.0,30.21,NNW,344,8.0,14.0,58,0.00,,,0.00,,2013-03-20 19:02:00,
2013-03-20 14:12:00,33.0,20.0,30.21,NNW,344,8.0,14.0,58,0.00,,,0.00,,2013-03-20 19:12:00,
2013-03-20 14:22:00,33.0,21.0,30.20,NNW,331,8.0,15.0,60,0.00,,,0.00,,2013-03-20 19:22:00,
2013-03-20 14:32:00,34.0,19.0,30.21,WNW,284,10.0,15.0,53,0.00,,,0.00,,2013-03-20 19:32:00,
2013-03-20 14:42:00,34.0,19.0,30.21,WNW,284,10.0,15.0,53,0.00,,,0.00,,2013-03-20 19:42:00,
2013-03-20 14:52:00,32.0,17.0,30.20,NW,314,9.0,15.0,53,0.00,,,0.00,,2013-03-20 19:52:00,
2013-03-20 15:02:00,32.0,17.0,30.19,NW,316,9.0,14.0,53,0.00,,,0.00,,2013-03-20 20:02:00,
2013-03-20 15:13:00,32.0,17.0,30.19,NW,316,9.0,14.0,53,0.00,,,0.00,,2013-03-20 20:13:00,
2013-03-20 15:22:00,33.0,19.0,30.19,WNW,287,9.0,14.0,57,0.00,,,0.00,,2013-03-20 20:22:00,
2013-03-20 15:32:00,32.0,17.0,30.20,West,261,8.0,14.0,53,0.00,,,0.00,,2013-03-20 20:32:00,
2013-03-20 15:42:00,32.0,17.0,30.20,West,261,8.0,14.0,53,0.00,,,0.00,,2013-03-20 20:42:00,
2013-03-20 15:52:00,32.0,19.0,30.19,NW,306,8.0,14.0,57,0.00,,,0.00,,2013-03-20 20:52:00,
2013-03-20 16:02:00,33.0,17.0,30.19,West,269,10.0,18.0,52,0.00,,,0.00,,2013-03-20 21:02:00,
2013-03-20 16:12:00,33.0,17.0,30.19,West,269,10.0,18.0,52,0.00,,,0.00,,2013-03-20 21:12:00,
2013-03-20 16:22:00,32.0,18.0,30.19,NNW,331,8.0,14.0,55,0.00,,,0.00,,2013-03-20 21:22:00,
2013-03-20 16:33:00,32.0,17.0,30.19,NW,315,8.0,15.0,53,0.00,,,0.00,,2013-03-20 21:33:00,
2013-03-20 16:42:00,32.0,17.0,30.19,NW,315,8.0,15.0,53,0.00,,,0.00,,2013-03-20 21:42:00,
2013-03-20 16:52:00,31.0,17.0,30.19,WNW,300,8.0,18.0,55,0.00,,,0.00,,2013-03-20 21:52:00,
2013-03-20 17:03:00,32.0,17.0,30.19,NW,317,9.0,14.0,54,0.00,,,0.00,,2013-03-20 22:03:00,
2013-03-20 17:12:00,32.0,17.0,30.19,NW,317,9.0,14.0,54,0.00,,,0.00,,2013-03-20 22:12:00,
2013-03-20 17:23:00,31.0,17.0,30.18,NW,311,7.0,17.0,56,0.00,,,0.00,,2013-03-20 22:23:00,
2013-03-20 17:33:00,30.0,16.0,30.19,NW,321,7.0,14.0,55,0.00,,,0.00,,2013-03-20 22:33:00,
2013-03-20 17:42:00,30.0,16.0,30.19,NW,321,7.0,14.0,55,0.00,,,0.00,,2013-03-20 22:42:00,
2013-03-20 17:52:00,31.0,17.0,30.18,West,263,8.0,15.0,55,0.00,,,0.00,,2013-03-20 22:52:00,
2013-03-20 18:02:00,31.0,15.0,30.18,NW,309,9.0,17.0,51,0.00,,,0.00,,2013-03-20 23:02:00,
2013-03-20 18:12:00,31.0,15.0,30.18,NW,309,9.0,17.0,51,0.00,,,0.00,,2013-03-20 23:12:00,
2013-03-20 18:22:00,30.0,15.0,30.18,NNW,331,7.0,14.0,54,0.00,,,0.00,,2013-03-20 23:22:00,
2013-03-20 18:32:00,30.0,17.0,30.17,NNW,342,6.0,13.0,57,0.00,,,0.00,,2013-03-20 23:32:00,
2013-03-20 18:42:00,30.0,17.0,30.17,NNW,342,6.0,13.0,57,0.00,,,0.00,,2013-03-20 23:42:00,
2013-03-20 18:52:00,30.0,16.0,30.17,NW,312,7.0,12.0,55,0.00,,,0.00,,2013-03-20 23:52:00,
2013-03-20 19:02:00,30.0,16.0,30.17,NNW,339,4.0,10.0,56,0.00,,,0.00,,2013-03-21 00:02:00,
2013-03-20 19:12:00,30.0,16.0,30.17,NNW,339,4.0,10.0,56,0.00,,,0.00,,2013-03-21 00:12:00,
2013-03-20 19:23:00,30.0,16.0,30.17,NW,309,6.0,10.0,56,0.00,,,0.00,,2013-03-21 00:23:00,
2013-03-20 19:32:00,29.0,14.0,30.17,NNW,329,6.0,13.0,54,0.00,,,0.00,,2013-03-21 00:32:00,
2013-03-20 19:42:00,29.0,14.0,30.17,NNW,329,6.0,13.0,54,0.00,,,0.00,,2013-03-21 00:42:00,
2013-03-20 19:52:00,29.0,15.0,30.17,NW,316,5.0,9.0,56,0.00,,,0.00,,2013-03-21 00:52:00,
2013-03-20 20:02:00,29.0,16.0,30.17,WNW,302,2.0,9.0,58,0.00,,,0.00,,2013-03-21 01:02:00,
2013-03-20 20:12:00,29.0,16.0,30.17,WNW,302,2.0,9.0,58,0.00,,,0.00,,2013-03-21 01:12:00,
2013-03-20 20:22:00,28.0,15.0,30.17,NNW,333,4.0,8.0,58,0.00,,,0.00,,2013-03-21 01:22:00,
2013-03-20 20:32:00,28.0,16.0,30.17,WNW,301,1.0,6.0,59,0.00,,,0.00,,2013-03-21 01:32:00,
2013-03-20 20:42:00,28.0,16.0,30.17,WNW,301,1.0,6.0,59,0.00,,,0.00,,2013-03-21 01:42:00,
2013-03-20 20:52:00,28.0,16.0,30.17,NW,308,1.0,8.0,59,0.00,,,0.00,,2013-03-21 01:52:00,
2013-03-20 21:02:00,28.0,17.0,30.18,NNW,335,0.0,6.0,62,0.00,,,0.00,,2013-03-21 02:02:00,
2013-03-20 21:12:00,28.0,17.0,30.18,NNW,335,0.0,6.0,62,0.00,,,0.00,,2013-03-21 02:12:00,
2013-03-20 21:22:00,27.0,16.0,30.17,NW,315,0.0,4.0,63,0.00,,,0.00,,2013-03-21 02:22:00,
2013-03-20 21:32:00,27.0,16.0,30.17,NW,312,0.0,4.0,64,0.00,,,0.00,,2013-03-21 02:32:00,
2013-03-20 21:42:00,27.0,16.0,30.17,NW,312,0.0,4.0,64,0.00,,,0.00,,2013-03-21 02:42:00,
2013-03-20 21:51:00,27.0,16.0,30.17,NW,312,0.0,4.0,64,0.00,,,0.00,,2013-03-21 02:51:00,
2013-03-20 22:02:00,27.0,16.0,30.16,NW,320,2.0,5.0,63,0.00,,,0.00,,2013-03-21 03:02:00,
2013-03-20 22:12:00,27.0,16.0,30.16,NW,320,2.0,5.0,63,0.00,,,0.00,,2013-03-21 03:12:00,
2013-03-20 22:22:00,27.0,15.0,30.16,NNW,333,5.0,11.0,60,0.00,,,0.00,,2013-03-21 03:22:00,
2013-03-20 22:33:00,27.0,15.0,30.16,NW,320,3.0,8.0,60,0.00,,,0.00,,2013-03-21 03:33:00,
2013-03-20 22:43:00,27.0,15.0,30.16,NW,320,3.0,8.0,60,0.00,,,0.00,,2013-03-21 03:43:00,
2013-03-20 22:53:00,27.0,15.0,30.17,NNW,347,3.0,8.0,60,0.00,,,0.00,,2013-03-21 03:53:00,
2013-03-20 23:03:00,27.0,15.0,30.16,NNW,343,2.0,7.0,60,0.00,,,0.00,,2013-03-21 04:03:00,
2013-03-20 23:13:00,27.0,15.0,30.16,NNW,343,2.0,7.0,60,0.00,,,0.00,,2013-03-21 04:13:00,
2013-03-20 23:23:00,26.0,15.0,30.16,NW,319,1.0,5.0,62,0.00,,,0.00,,2013-03-21 04:23:00,
2013-03-20 23:33:00,26.0,15.0,30.16,NW,305,0.0,6.0,62,0.00,,,0.00,,2013-03-21 04:33:00,
2013-03-20 23:43:00,26.0,15.0,30.16,NW,305,0.0,6.0,62,0.00,,,0.00,,2013-03-21 04:43:00,
2013-03-20 23:53:00,26.0,16.0,30.16,North,351,0.0,0.0,65,0.00,,,0.00,,2013-03-21 04:53:00,